sensor_id;sensor_type;location;lat;lon;timestamp;pressure;altitude;pressure_sealevel;temperature;humidity
75594;BME280;64176;49.156;7.810;2023-08-07T00:00:09;99069.03;;;11.79;90.62
75594;BME280;64176;49.156;7.810;2023-08-07T00:02:53;99077.63;;;11.92;91.07
75594;BME280;64176;49.156;7.810;2023-08-07T00:05:37;99086.28;;;11.77;90.46
75594;BME280;64176;49.156;7.810;2023-08-07T00:08:23;99081.13;;;11.82;90.79
75594;BME280;64176;49.156;7.810;2023-08-07T00:11:08;99086.28;;;11.77;90.38
75594;BME280;64176;49.156;7.810;2023-08-07T00:13:53;99079.34;;;11.75;90.42
75594;BME280;64176;49.156;7.810;2023-08-07T00:16:36;99071.59;;;11.73;90.57
75594;BME280;64176;49.156;7.810;2023-08-07T00:19:20;99073.34;;;11.68;90.66
75594;BME280;64176;49.156;7.810;2023-08-07T00:22:04;99082.84;;;11.69;91.20
75594;BME280;64176;49.156;7.810;2023-08-07T00:24:49;99077.66;;;11.71;90.89
75594;BME280;64176;49.156;7.810;2023-08-07T00:27:32;99083.69;;;11.62;90.64
75594;BME280;64176;49.156;7.810;2023-08-07T00:30:19;99077.66;;;11.63;91.34
75594;BME280;64176;49.156;7.810;2023-08-07T00:33:03;99080.25;;;11.75;91.23
75594;BME280;64176;49.156;7.810;2023-08-07T00:35:47;99080.25;;;11.66;91.18
75594;BME280;64176;49.156;7.810;2023-08-07T00:38:31;99083.72;;;11.77;91.37
75594;BME280;64176;49.156;7.810;2023-08-07T00:41:16;99079.34;;;11.75;90.17
75594;BME280;64176;49.156;7.810;2023-08-07T00:44:01;99088.84;;;11.74;90.84
75594;BME280;64176;49.156;7.810;2023-08-07T00:46:45;99088.88;;;11.70;89.94
75594;BME280;64176;49.156;7.810;2023-08-07T00:49:32;99090.56;;;11.72;90.39
75594;BME280;64176;49.156;7.810;2023-08-07T00:52:17;99085.44;;;11.67;91.20
75594;BME280;64176;49.156;7.810;2023-08-07T00:55:01;99086.25;;;11.73;90.27
75594;BME280;64176;49.156;7.810;2023-08-07T00:57:48;99084.56;;;11.67;91.17
75594;BME280;64176;49.156;7.810;2023-08-07T01:00:33;99085.44;;;11.67;90.86
75594;BME280;64176;49.156;7.810;2023-08-07T01:03:19;99088.84;;;11.71;90.27
75594;BME280;64176;49.156;7.810;2023-08-07T01:06:03;99087.16;;;11.76;90.45
75594;BME280;64176;49.156;7.810;2023-08-07T01:08:49;99081.97;;;11.65;89.83
75594;BME280;64176;49.156;7.810;2023-08-07T01:11:48;99085.44;;;11.69;91.15
75594;BME280;64176;49.156;7.810;2023-08-07T01:14:54;99087.13;;;11.72;90.27
75594;BME280;64176;49.156;7.810;2023-08-07T01:17:37;99086.28;;;11.63;90.45
75594;BME280;64176;49.156;7.810;2023-08-07T01:20:21;99095.81;;;11.58;90.95
75594;BME280;64176;49.156;7.810;2023-08-07T01:23:06;99097.50;;;11.68;90.99
75594;BME280;64176;49.156;7.810;2023-08-07T01:25:50;99091.47;;;11.56;91.03
75594;BME280;64176;49.156;7.810;2023-08-07T01:28:38;99089.75;;;11.59;90.85
75594;BME280;64176;49.156;7.810;2023-08-07T01:31:27;99090.59;;;11.52;91.17
75594;BME280;64176;49.156;7.810;2023-08-07T01:34:17;99093.22;;;11.55;91.02
75594;BME280;64176;49.156;7.810;2023-08-07T01:37:03;99088.88;;;11.54;90.87
75594;BME280;64176;49.156;7.810;2023-08-07T01:39:48;99088.88;;;11.51;90.85
75594;BME280;64176;49.156;7.810;2023-08-07T01:42:36;99095.78;;;11.52;90.86
75594;BME280;64176;49.156;7.810;2023-08-07T01:45:28;99108.75;;;11.57;91.13
75594;BME280;64176;49.156;7.810;2023-08-07T01:48:12;99105.28;;;11.46;91.94
75594;BME280;64176;49.156;7.810;2023-08-07T01:50:57;99109.59;;;11.42;92.71
75594;BME280;64176;49.156;7.810;2023-08-07T01:53:41;99107.88;;;11.47;91.48
75594;BME280;64176;49.156;7.810;2023-08-07T01:56:28;99107.03;;;11.47;91.80
75594;BME280;64176;49.156;7.810;2023-08-07T01:59:12;99100.97;;;11.46;91.91
75594;BME280;64176;49.156;7.810;2023-08-07T02:01:56;99108.75;;;11.37;92.46
75594;BME280;64176;49.156;7.810;2023-08-07T02:04:40;99113.03;;;11.41;92.32
75594;BME280;64176;49.156;7.810;2023-08-07T02:07:24;99103.56;;;11.36;91.71
75594;BME280;64176;49.156;7.810;2023-08-07T02:10:11;99109.59;;;11.30;91.91
75594;BME280;64176;49.156;7.810;2023-08-07T02:12:57;99113.06;;;11.34;92.72
75594;BME280;64176;49.156;7.810;2023-08-07T02:15:42;99106.16;;;11.36;91.82
75594;BME280;64176;49.156;7.810;2023-08-07T02:18:28;99120.81;;;11.27;92.85
75594;BME280;64176;49.156;7.810;2023-08-07T02:21:12;99113.06;;;11.26;92.76
75594;BME280;64176;49.156;7.810;2023-08-07T02:23:56;99120.78;;;11.09;93.80
75594;BME280;64176;49.156;7.810;2023-08-07T02:26:41;99119.94;;;11.13;93.27
75594;BME280;64176;49.156;7.810;2023-08-07T02:29:25;99116.47;;;11.05;94.56
75594;BME280;64176;49.156;7.810;2023-08-07T02:32:09;99117.34;;;11.04;94.41
75594;BME280;64176;49.156;7.810;2023-08-07T02:34:55;99119.94;;;11.12;93.41
75594;BME280;64176;49.156;7.810;2023-08-07T02:37:41;99119.09;;;11.13;93.43
75594;BME280;64176;49.156;7.810;2023-08-07T02:40:25;99111.31;;;11.01;93.94
75594;BME280;64176;49.156;7.810;2023-08-07T02:43:12;99119.91;;;10.97;94.27
75594;BME280;64176;49.156;7.810;2023-08-07T02:45:58;99119.06;;;11.01;94.66
75594;BME280;64176;49.156;7.810;2023-08-07T02:48:43;99126.81;;;10.88;94.95
75594;BME280;64176;49.156;7.810;2023-08-07T02:51:27;99122.47;;;10.80;95.26
75594;BME280;64176;49.156;7.810;2023-08-07T02:54:11;99126.78;;;10.79;95.44
75594;BME280;64176;49.156;7.810;2023-08-07T02:56:56;99118.19;;;10.88;95.72
75594;BME280;64176;49.156;7.810;2023-08-07T02:59:44;99125.91;;;10.83;95.37
75594;BME280;64176;49.156;7.810;2023-08-07T03:02:28;99124.22;;;10.82;94.73
75594;BME280;64176;49.156;7.810;2023-08-07T03:05:15;99132.81;;;10.86;95.24
75594;BME280;64176;49.156;7.810;2023-08-07T03:08:02;99129.34;;;10.76;95.52
75594;BME280;64176;49.156;7.810;2023-08-07T03:10:57;99131.97;;;10.82;95.66
75594;BME280;64176;49.156;7.810;2023-08-07T03:13:42;99135.41;;;10.81;95.55
75594;BME280;64176;49.156;7.810;2023-08-07T03:16:30;99129.34;;;10.72;95.97
75594;BME280;64176;49.156;7.810;2023-08-07T03:19:14;99134.50;;;10.73;96.07
75594;BME280;64176;49.156;7.810;2023-08-07T03:21:58;99132.81;;;10.83;95.90
75594;BME280;64176;49.156;7.810;2023-08-07T03:24:46;99123.31;;;10.68;96.65
75594;BME280;64176;49.156;7.810;2023-08-07T03:27:30;99141.44;;;10.85;95.65
75594;BME280;64176;49.156;7.810;2023-08-07T03:30:14;99140.56;;;10.83;95.31
75594;BME280;64176;49.156;7.810;2023-08-07T03:32:58;99138.00;;;10.87;95.17
75594;BME280;64176;49.156;7.810;2023-08-07T03:35:43;99136.25;;;10.85;95.33
75594;BME280;64176;49.156;7.810;2023-08-07T03:38:27;99140.56;;;10.78;95.72
75594;BME280;64176;49.156;7.810;2023-08-07T03:41:13;99139.72;;;10.85;95.42
75594;BME280;64176;49.156;7.810;2023-08-07T03:44:00;99134.53;;;10.85;95.64
75594;BME280;64176;49.156;7.810;2023-08-07T03:46:44;99138.84;;;10.80;96.34
75594;BME280;64176;49.156;7.810;2023-08-07T03:49:29;99136.28;;;10.88;96.17
75594;BME280;64176;49.156;7.810;2023-08-07T03:52:13;99140.63;;;11.04;95.41
75594;BME280;64176;49.156;7.810;2023-08-07T03:54:57;99130.25;;;10.98;95.42
75594;BME280;64176;49.156;7.810;2023-08-07T03:57:41;99144.91;;;10.88;96.07
75594;BME280;64176;49.156;7.810;2023-08-07T04:00:25;99137.13;;;10.94;95.27
75594;BME280;64176;49.156;7.810;2023-08-07T04:03:09;99140.59;;;10.97;95.75
75594;BME280;64176;49.156;7.810;2023-08-07T04:05:53;99135.44;;;11.06;95.21
75594;BME280;64176;49.156;7.810;2023-08-07T04:08:37;99144.94;;;11.01;95.19
75594;BME280;64176;49.156;7.810;2023-08-07T04:11:21;99145.78;;;11.06;95.03
75594;BME280;64176;49.156;7.810;2023-08-07T04:14:07;99136.28;;;10.88;95.17
75594;BME280;64176;49.156;7.810;2023-08-07T04:16:51;99140.63;;;11.03;94.53
75594;BME280;64176;49.156;7.810;2023-08-07T04:19:35;99139.75;;;10.99;94.50
75594;BME280;64176;49.156;7.810;2023-08-07T04:22:19;99145.78;;;10.98;94.80
75594;BME280;64176;49.156;7.810;2023-08-07T04:25:06;99150.97;;;11.00;95.19
75594;BME280;64176;49.156;7.810;2023-08-07T04:27:50;99143.19;;;11.00;94.60
75594;BME280;64176;49.156;7.810;2023-08-07T04:30:34;99135.41;;;10.89;94.84
75594;BME280;64176;49.156;7.810;2023-08-07T04:33:19;99140.59;;;10.90;94.76
75594;BME280;64176;49.156;7.810;2023-08-07T04:36:03;99149.22;;;10.88;95.41
75594;BME280;64176;49.156;7.810;2023-08-07T04:38:47;99150.06;;;10.87;94.69
75594;BME280;64176;49.156;7.810;2023-08-07T04:41:31;99143.19;;;10.92;95.39
75594;BME280;64176;49.156;7.810;2023-08-07T04:44:16;99152.66;;;10.88;95.20
75594;BME280;64176;49.156;7.810;2023-08-07T04:47:00;99151.78;;;10.95;95.35
75594;BME280;64176;49.156;7.810;2023-08-07T04:49:44;99152.66;;;10.94;95.17
75594;BME280;64176;49.156;7.810;2023-08-07T04:52:28;99150.94;;;10.98;95.21
75594;BME280;64176;49.156;7.810;2023-08-07T04:55:11;99156.16;;;11.04;94.50
75594;BME280;64176;49.156;7.810;2023-08-07T04:57:56;99155.25;;;10.99;94.43
75594;BME280;64176;49.156;7.810;2023-08-07T05:00:40;99164.78;;;11.03;94.94
75594;BME280;64176;49.156;7.810;2023-08-07T05:03:24;99162.16;;;10.99;94.80
75594;BME280;64176;49.156;7.810;2023-08-07T05:06:08;99163.88;;;10.97;94.37
75594;BME280;64176;49.156;7.810;2023-08-07T05:08:55;99163.88;;;10.92;94.56
75594;BME280;64176;49.156;7.810;2023-08-07T05:11:39;99167.31;;;10.99;95.11
75594;BME280;64176;49.156;7.810;2023-08-07T05:14:23;99150.97;;;11.00;94.36
75594;BME280;64176;49.156;7.810;2023-08-07T05:17:08;99169.97;;;11.26;93.57
75594;BME280;64176;49.156;7.810;2023-08-07T05:19:52;99171.69;;;11.21;93.74
75594;BME280;64176;49.156;7.810;2023-08-07T05:22:36;99169.94;;;11.11;94.65
75594;BME280;64176;49.156;7.810;2023-08-07T05:25:25;99174.25;;;11.12;94.85
75594;BME280;64176;49.156;7.810;2023-08-07T05:28:09;99171.66;;;11.07;94.25
75594;BME280;64176;49.156;7.810;2023-08-07T05:30:53;99162.19;;;11.09;94.34
75594;BME280;64176;49.156;7.810;2023-08-07T05:33:37;99180.28;;;11.09;94.84
75594;BME280;64176;49.156;7.810;2023-08-07T05:36:21;99186.34;;;11.14;94.96
75594;BME280;64176;49.156;7.810;2023-08-07T05:39:05;99188.88;;;11.05;94.41
75594;BME280;64176;49.156;7.810;2023-08-07T05:41:53;99188.03;;;11.17;93.87
75594;BME280;64176;49.156;7.810;2023-08-07T05:44:38;99187.19;;;11.16;93.72
75594;BME280;64176;49.156;7.810;2023-08-07T05:47:22;99183.78;;;11.25;93.83
75594;BME280;64176;49.156;7.810;2023-08-07T05:50:06;99192.44;;;11.57;92.80
75594;BME280;64176;49.156;7.810;2023-08-07T05:52:50;99204.53;;;11.75;91.17
75594;BME280;64176;49.156;7.810;2023-08-07T05:55:39;99203.63;;;11.72;90.63
75594;BME280;64176;49.156;7.810;2023-08-07T05:58:27;99200.19;;;11.68;90.91
75594;BME280;64176;49.156;7.810;2023-08-07T06:01:11;99201.09;;;11.78;90.24
75594;BME280;64176;49.156;7.810;2023-08-07T06:03:55;99203.66;;;11.70;90.52
75594;BME280;64176;49.156;7.810;2023-08-07T06:06:39;99200.22;;;11.82;90.40
75594;BME280;64176;49.156;7.810;2023-08-07T06:09:26;99209.72;;;11.81;89.75
75594;BME280;64176;49.156;7.810;2023-08-07T06:12:10;99206.25;;;11.94;90.11
75594;BME280;64176;49.156;7.810;2023-08-07T06:14:54;99218.34;;;11.91;89.02
75594;BME280;64176;49.156;7.810;2023-08-07T06:17:40;99211.41;;;11.96;89.35
75594;BME280;64176;49.156;7.810;2023-08-07T06:20:24;99214.88;;;12.01;89.22
75594;BME280;64176;49.156;7.810;2023-08-07T06:23:09;99206.25;;;12.02;88.82
75594;BME280;64176;49.156;7.810;2023-08-07T06:25:53;99229.56;;;12.00;88.08
75594;BME280;64176;49.156;7.810;2023-08-07T06:28:37;99220.91;;;12.04;87.90
75594;BME280;64176;49.156;7.810;2023-08-07T06:31:21;99230.38;;;12.36;86.51
75594;BME280;64176;49.156;7.810;2023-08-07T06:34:05;99221.69;;;12.52;85.34
75594;BME280;64176;49.156;7.810;2023-08-07T06:36:49;99222.38;;;12.95;83.84
75594;BME280;64176;49.156;7.810;2023-08-07T06:39:33;99224.09;;;12.98;82.86
75594;BME280;64176;49.156;7.810;2023-08-07T06:42:17;99225.06;;;12.74;83.32
75594;BME280;64176;49.156;7.810;2023-08-07T06:45:03;99223.44;;;12.38;84.52
75594;BME280;64176;49.156;7.810;2023-08-07T06:47:47;99235.47;;;12.60;83.82
75594;BME280;64176;49.156;7.810;2023-08-07T06:50:31;99234.69;;;12.37;84.49
75594;BME280;64176;49.156;7.810;2023-08-07T06:53:19;99219.97;;;12.40;84.24
75594;BME280;64176;49.156;7.810;2023-08-07T06:56:03;99238.13;;;12.39;83.96
75594;BME280;64176;49.156;7.810;2023-08-07T06:58:50;99238.97;;;12.38;84.28
75594;BME280;64176;49.156;7.810;2023-08-07T07:01:34;99222.59;;;12.33;83.72
75594;BME280;64176;49.156;7.810;2023-08-07T07:04:18;99231.22;;;12.38;83.22
75594;BME280;64176;49.156;7.810;2023-08-07T07:07:02;99229.50;;;12.34;82.60
75594;BME280;64176;49.156;7.810;2023-08-07T07:09:46;99238.97;;;12.52;83.33
75594;BME280;64176;49.156;7.810;2023-08-07T07:12:30;99236.38;;;12.53;82.52
75594;BME280;64176;49.156;7.810;2023-08-07T07:15:14;99243.28;;;12.53;82.55
75594;BME280;64176;49.156;7.810;2023-08-07T07:17:59;99240.69;;;12.51;81.44
75594;BME280;64176;49.156;7.810;2023-08-07T07:20:43;99249.34;;;12.55;81.85
75594;BME280;64176;49.156;7.810;2023-08-07T07:23:30;99244.13;;;12.61;81.52
75594;BME280;64176;49.156;7.810;2023-08-07T07:26:14;99242.38;;;12.67;80.03
75594;BME280;64176;49.156;7.810;2023-08-07T07:29:00;99258.78;;;12.71;79.36
75594;BME280;64176;49.156;7.810;2023-08-07T07:31:44;99257.88;;;12.83;80.29
75594;BME280;64176;49.156;7.810;2023-08-07T07:34:28;99253.59;;;12.71;79.23
75594;BME280;64176;49.156;7.810;2023-08-07T07:37:13;99267.34;;;12.94;79.74
75594;BME280;64176;49.156;7.810;2023-08-07T07:39:58;99255.09;;;13.36;78.21
75594;BME280;64176;49.156;7.810;2023-08-07T07:42:42;99258.56;;;13.27;75.92
75594;BME280;64176;49.156;7.810;2023-08-07T07:45:26;99257.53;;;13.56;75.86
75594;BME280;64176;49.156;7.810;2023-08-07T07:48:13;99254.09;;;13.49;76.30
75594;BME280;64176;49.156;7.810;2023-08-07T07:51:03;99261.13;;;13.36;74.85
75594;BME280;64176;49.156;7.810;2023-08-07T07:53:47;99265.28;;;13.62;73.04
75594;BME280;64176;49.156;7.810;2023-08-07T07:56:31;99266.91;;;13.78;72.99
75594;BME280;64176;49.156;7.810;2023-08-07T07:59:15;99269.25;;;14.10;71.67
75594;BME280;64176;49.156;7.810;2023-08-07T08:02:04;99265.91;;;13.93;71.91
75594;BME280;64176;49.156;7.810;2023-08-07T08:04:51;99264.19;;;13.95;73.18
75594;BME280;64176;49.156;7.810;2023-08-07T08:07:37;99261.66;;;13.85;72.58
75594;BME280;64176;49.156;7.810;2023-08-07T08:10:22;99279.03;;;13.76;72.72
75594;BME280;64176;49.156;7.810;2023-08-07T08:13:09;99285.88;;;13.91;71.52
75594;BME280;64176;49.156;7.810;2023-08-07T08:15:53;99278.03;;;13.97;70.42
75594;BME280;64176;49.156;7.810;2023-08-07T08:18:37;99273.59;;;14.11;69.35
75594;BME280;64176;49.156;7.810;2023-08-07T08:21:23;99269.66;;;14.61;67.84
75594;BME280;64176;49.156;7.810;2023-08-07T08:24:10;99283.25;;;14.87;66.24
75594;BME280;64176;49.156;7.810;2023-08-07T08:26:54;99270.50;;;14.63;67.23
75594;BME280;64176;49.156;7.810;2023-08-07T08:29:38;99271.38;;;15.34;66.24
75594;BME280;64176;49.156;7.810;2023-08-07T08:32:22;99272.09;;;14.76;64.42
75594;BME280;64176;49.156;7.810;2023-08-07T08:35:06;99275.31;;;14.96;65.56
75594;BME280;64176;49.156;7.810;2023-08-07T08:37:51;99274.22;;;15.15;65.14
75594;BME280;64176;49.156;7.810;2023-08-07T08:40:35;99275.09;;;15.14;67.31
75594;BME280;64176;49.156;7.810;2023-08-07T08:43:22;99246.03;;;15.46;65.00
75594;BME280;64176;49.156;7.810;2023-08-07T08:46:08;99269.13;;;15.72;64.23
75594;BME280;64176;49.156;7.810;2023-08-07T08:48:56;99258.97;;;15.52;63.63
75594;BME280;64176;49.156;7.810;2023-08-07T08:51:42;99242.06;;;15.21;62.13
75594;BME280;64176;49.156;7.810;2023-08-07T08:54:30;99264.44;;;15.34;62.29
75594;BME280;64176;49.156;7.810;2023-08-07T08:57:15;99271.88;;;15.61;61.57
75594;BME280;64176;49.156;7.810;2023-08-07T09:00:03;99264.19;;;15.51;61.94
75594;BME280;64176;49.156;7.810;2023-08-07T09:02:59;99261.88;;;15.31;62.08
75594;BME280;64176;49.156;7.810;2023-08-07T09:05:46;99261.59;;;15.51;62.33
75594;BME280;64176;49.156;7.810;2023-08-07T09:08:30;99265.16;;;15.45;63.79
75594;BME280;64176;49.156;7.810;2023-08-07T09:11:17;99263.47;;;15.41;61.62
75594;BME280;64176;49.156;7.810;2023-08-07T09:14:02;99274.78;;;15.39;62.37
75594;BME280;64176;49.156;7.810;2023-08-07T09:16:50;99271.16;;;15.49;61.52
75594;BME280;64176;49.156;7.810;2023-08-07T09:19:35;99282.00;;;15.81;61.74
75594;BME280;64176;49.156;7.810;2023-08-07T09:22:19;99258.69;;;16.24;59.24
75594;BME280;64176;49.156;7.810;2023-08-07T09:25:04;99259.47;;;16.31;60.00
75594;BME280;64176;49.156;7.810;2023-08-07T09:27:48;99268.75;;;15.95;60.80
75594;BME280;64176;49.156;7.810;2023-08-07T09:30:34;99280.19;;;15.88;60.75
75594;BME280;64176;49.156;7.810;2023-08-07T09:33:26;99274.13;;;15.86;60.40
75594;BME280;64176;49.156;7.810;2023-08-07T09:36:11;99281.13;;;15.82;59.23
75594;BME280;64176;49.156;7.810;2023-08-07T09:39:00;99279.53;;;15.72;58.53
75594;BME280;64176;49.156;7.810;2023-08-07T09:41:51;99278.34;;;15.93;58.68
75594;BME280;64176;49.156;7.810;2023-08-07T09:44:36;99270.84;;;15.73;57.28
75594;BME280;64176;49.156;7.810;2023-08-07T09:47:20;99270.69;;;15.84;57.12
75594;BME280;64176;49.156;7.810;2023-08-07T09:50:05;99281.75;;;15.98;57.65
75594;BME280;64176;49.156;7.810;2023-08-07T09:52:49;99272.66;;;16.22;57.36
75594;BME280;64176;49.156;7.810;2023-08-07T09:55:35;99286.66;;;16.16;58.29
75594;BME280;64176;49.156;7.810;2023-08-07T09:58:19;99279.50;;;16.27;58.04
75594;BME280;64176;49.156;7.810;2023-08-07T10:01:04;99284.34;;;15.98;57.26
75594;BME280;64176;49.156;7.810;2023-08-07T10:03:48;99286.84;;;16.04;58.04
75594;BME280;64176;49.156;7.810;2023-08-07T10:06:33;99287.22;;;15.80;57.49
75594;BME280;64176;49.156;7.810;2023-08-07T10:09:17;99281.03;;;15.90;58.51
75594;BME280;64176;49.156;7.810;2023-08-07T10:12:01;99287.84;;;15.97;58.09
75594;BME280;64176;49.156;7.810;2023-08-07T10:14:45;99301.09;;;15.82;58.85
75594;BME280;64176;49.156;7.810;2023-08-07T10:17:31;99298.81;;;15.60;59.23
75594;BME280;64176;49.156;7.810;2023-08-07T10:20:15;99289.25;;;15.62;58.54
75594;BME280;64176;49.156;7.810;2023-08-07T10:23:07;99296.94;;;15.70;57.64
75594;BME280;64176;49.156;7.810;2023-08-07T10:25:52;99308.94;;;15.80;57.05
75594;BME280;64176;49.156;7.810;2023-08-07T10:28:39;99314.94;;;15.87;57.15
75594;BME280;64176;49.156;7.810;2023-08-07T10:31:24;99299.81;;;16.10;56.58
75594;BME280;64176;49.156;7.810;2023-08-07T10:34:11;99313.13;;;16.46;56.15
75594;BME280;64176;49.156;7.810;2023-08-07T10:36:55;99298.25;;;16.51;55.74
75594;BME280;64176;49.156;7.810;2023-08-07T10:40:02;99307.50;;;16.68;56.10
75594;BME280;64176;49.156;7.810;2023-08-07T10:45:40;99303.09;;;16.72;55.28
75594;BME280;64176;49.156;7.810;2023-08-07T10:48:26;99304.09;;;16.65;54.64
75594;BME280;64176;49.156;7.810;2023-08-07T10:51:14;99304.28;;;16.54;54.62
75594;BME280;64176;49.156;7.810;2023-08-07T10:53:59;99313.44;;;16.26;55.65
75594;BME280;64176;49.156;7.810;2023-08-07T10:56:52;99298.19;;;16.54;56.54
75594;BME280;64176;49.156;7.810;2023-08-07T10:59:37;99304.19;;;16.57;55.75
75594;BME280;64176;49.156;7.810;2023-08-07T11:02:24;99304.16;;;16.59;55.86
75594;BME280;64176;49.156;7.810;2023-08-07T11:05:10;99308.75;;;16.46;55.91
75594;BME280;64176;49.156;7.810;2023-08-07T11:07:54;99308.34;;;16.70;56.45
75594;BME280;64176;49.156;7.810;2023-08-07T11:10:38;99294.69;;;16.55;55.27
75594;BME280;64176;49.156;7.810;2023-08-07T11:13:23;99309.69;;;16.91;55.36
75594;BME280;64176;49.156;7.810;2023-08-07T11:16:07;99303.53;;;16.95;55.80
75594;BME280;64176;49.156;7.810;2023-08-07T11:18:51;99286.00;;;17.42;55.37
75594;BME280;64176;49.156;7.810;2023-08-07T11:21:36;99289.00;;;17.65;53.96
75594;BME280;64176;49.156;7.810;2023-08-07T11:24:23;99295.69;;;18.14;53.47
75594;BME280;64176;49.156;7.810;2023-08-07T11:27:07;99293.00;;;17.80;52.95
75594;BME280;64176;49.156;7.810;2023-08-07T11:29:51;99291.41;;;17.74;53.02
75594;BME280;64176;49.156;7.810;2023-08-07T11:32:40;99292.69;;;17.55;52.37
75594;BME280;64176;49.156;7.810;2023-08-07T11:35:24;99289.56;;;17.38;52.84
75594;BME280;64176;49.156;7.810;2023-08-07T11:38:09;99307.22;;;17.27;53.33
75594;BME280;64176;49.156;7.810;2023-08-07T11:40:53;99295.22;;;17.18;55.05
75594;BME280;64176;49.156;7.810;2023-08-07T11:43:38;99293.09;;;17.35;53.75
75594;BME280;64176;49.156;7.810;2023-08-07T11:46:22;99265.31;;;17.73;55.42
75594;BME280;64176;49.156;7.810;2023-08-07T11:49:07;99283.28;;;17.87;53.45
75594;BME280;64176;49.156;7.810;2023-08-07T11:51:51;99289.06;;;17.64;53.39
75594;BME280;64176;49.156;7.810;2023-08-07T11:54:36;99287.16;;;17.69;52.83
75594;BME280;64176;49.156;7.810;2023-08-07T11:57:20;99284.88;;;17.54;52.47
75594;BME280;64176;49.156;7.810;2023-08-07T12:00:07;99291.09;;;17.48;52.94
75594;BME280;64176;49.156;7.810;2023-08-07T12:02:56;99290.22;;;17.47;52.64
75594;BME280;64176;49.156;7.810;2023-08-07T12:05:40;99287.72;;;17.44;52.87
75594;BME280;64176;49.156;7.810;2023-08-07T12:08:31;99296.34;;;17.46;53.29
75594;BME280;64176;49.156;7.810;2023-08-07T12:11:15;99308.00;;;17.32;54.06
75594;BME280;64176;49.156;7.810;2023-08-07T12:14:02;99296.31;;;17.08;52.48
75594;BME280;64176;49.156;7.810;2023-08-07T12:16:47;99292.63;;;17.18;52.99
75594;BME280;64176;49.156;7.810;2023-08-07T12:19:41;99285.63;;;17.19;52.96
75594;BME280;64176;49.156;7.810;2023-08-07T12:22:27;99282.50;;;17.83;53.18
75594;BME280;64176;49.156;7.810;2023-08-07T12:25:12;99273.53;;;17.55;51.98
75594;BME280;64176;49.156;7.810;2023-08-07T12:27:56;99267.31;;;17.60;52.31
75594;BME280;64176;49.156;7.810;2023-08-07T12:30:40;99271.25;;;17.79;52.55
75594;BME280;64176;49.156;7.810;2023-08-07T12:33:24;99261.88;;;18.40;51.37
75594;BME280;64176;49.156;7.810;2023-08-07T12:36:07;99262.69;;;18.44;51.30
75594;BME280;64176;49.156;7.810;2023-08-07T12:38:54;99267.94;;;18.42;49.36
75594;BME280;64176;49.156;7.810;2023-08-07T12:41:38;99271.63;;;18.34;49.84
75594;BME280;64176;49.156;7.810;2023-08-07T12:44:25;99277.13;;;18.57;49.89
75594;BME280;64176;49.156;7.810;2023-08-07T12:47:09;99282.44;;;18.55;50.28
75594;BME280;64176;49.156;7.810;2023-08-07T12:49:53;99285.31;;;18.11;50.64
75594;BME280;64176;49.156;7.810;2023-08-07T12:52:37;99278.47;;;17.68;51.32
75594;BME280;64176;49.156;7.810;2023-08-07T12:55:22;99290.69;;;17.68;51.66
75594;BME280;64176;49.156;7.810;2023-08-07T12:58:06;99290.47;;;17.37;52.22
75594;BME280;64176;49.156;7.810;2023-08-07T13:00:49;99300.00;;;17.39;54.25
75594;BME280;64176;49.156;7.810;2023-08-07T13:03:33;99289.22;;;17.55;53.52
75594;BME280;64176;49.156;7.810;2023-08-07T13:06:17;99282.88;;;18.03;52.22
75594;BME280;64176;49.156;7.810;2023-08-07T13:09:01;99270.84;;;17.96;53.11
75594;BME280;64176;49.156;7.810;2023-08-07T13:11:47;99279.44;;;18.01;53.16
75594;BME280;64176;49.156;7.810;2023-08-07T13:14:32;99273.75;;;17.84;53.32
75594;BME280;64176;49.156;7.810;2023-08-07T13:17:16;99274.25;;;17.63;54.04
75594;BME280;64176;49.156;7.810;2023-08-07T13:20:01;99293.09;;;17.37;55.18
75594;BME280;64176;49.156;7.810;2023-08-07T13:22:46;99294.91;;;17.33;56.08
75594;BME280;64176;49.156;7.810;2023-08-07T13:25:30;99305.44;;;17.29;56.12
75594;BME280;64176;49.156;7.810;2023-08-07T13:28:14;99305.91;;;17.07;56.14
75594;BME280;64176;49.156;7.810;2023-08-07T13:30:58;99302.91;;;17.26;56.25
75594;BME280;64176;49.156;7.810;2023-08-07T13:33:42;99296.88;;;17.64;55.56
75594;BME280;64176;49.156;7.810;2023-08-07T13:36:26;99302.06;;;17.67;56.16
75594;BME280;64176;49.156;7.810;2023-08-07T13:39:10;99285.00;;;17.88;56.04
75594;BME280;64176;49.156;7.810;2023-08-07T13:41:54;99306.09;;;17.80;54.58
75594;BME280;64176;49.156;7.810;2023-08-07T13:44:41;99300.81;;;17.81;54.95
75594;BME280;64176;49.156;7.810;2023-08-07T13:47:25;99314.69;;;18.22;53.78
75594;BME280;64176;49.156;7.810;2023-08-07T13:50:09;99305.84;;;18.26;53.53
75594;BME280;64176;49.156;7.810;2023-08-07T13:52:56;99302.66;;;18.13;53.78
75594;BME280;64176;49.156;7.810;2023-08-07T13:55:40;99316.44;;;18.22;54.53
75594;BME280;64176;49.156;7.810;2023-08-07T13:58:24;99319.03;;;17.86;54.06
75594;BME280;64176;49.156;7.810;2023-08-07T14:01:08;99311.13;;;17.89;53.73
75594;BME280;64176;49.156;7.810;2023-08-07T14:03:52;99310.06;;;17.96;54.62
75594;BME280;64176;49.156;7.810;2023-08-07T14:06:36;99311.13;;;17.89;55.06
75594;BME280;64176;49.156;7.810;2023-08-07T14:09:23;99313.63;;;17.94;55.93
75594;BME280;64176;49.156;7.810;2023-08-07T14:12:07;99309.44;;;17.87;56.22
75594;BME280;64176;49.156;7.810;2023-08-07T14:14:51;99310.72;;;18.06;56.78
75594;BME280;64176;49.156;7.810;2023-08-07T14:17:35;99311.97;;;18.25;55.96
75594;BME280;64176;49.156;7.810;2023-08-07T14:20:22;99316.66;;;18.46;56.01
75594;BME280;64176;49.156;7.810;2023-08-07T14:23:06;99299.44;;;18.38;55.08
75594;BME280;64176;49.156;7.810;2023-08-07T14:25:50;99298.50;;;18.06;54.80
75594;BME280;64176;49.156;7.810;2023-08-07T14:28:37;99310.78;;;18.03;55.70
75594;BME280;64176;49.156;7.810;2023-08-07T14:31:20;99315.03;;;18.08;55.65
75594;BME280;64176;49.156;7.810;2023-08-07T14:34:07;99304.94;;;18.29;54.49
75594;BME280;64176;49.156;7.810;2023-08-07T14:36:51;99304.19;;;18.56;53.21